sensor_id;sensor_type;location;lat;lon;timestamp;pressure;altitude;pressure_sealevel;temperature;humidity
45275;BME280;31019;43.780;25.948;2023-07-22T00:01:05;100528.19;;;25.93;100.00
45275;BME280;31019;43.780;25.948;2023-07-22T00:03:32;100530.91;;;25.93;100.00
45275;BME280;31019;43.780;25.948;2023-07-22T00:06:04;100532.53;;;25.80;100.00
45275;BME280;31019;43.780;25.948;2023-07-22T00:08:40;100527.81;;;25.86;100.00
45275;BME280;31019;43.780;25.948;2023-07-22T00:11:09;100541.81;;;25.79;100.00
45275;BME280;31019;43.780;25.948;2023-07-22T00:13:36;100542.28;;;25.73;100.00
45275;BME280;31019;43.780;25.948;2023-07-22T00:16:11;100547.34;;;25.66;100.00
45275;BME280;31019;43.780;25.948;2023-07-22T00:18:38;100555.16;;;25.58;100.00
45275;BME280;31019;43.780;25.948;2023-07-22T00:21:06;100573.00;;;25.73;100.00
45275;BME280;31019;43.780;25.948;2023-07-22T00:23:34;100576.22;;;25.75;100.00
45275;BME280;31019;43.780;25.948;2023-07-22T00:26:01;100588.19;;;25.74;100.00
45275;BME280;31019;43.780;25.948;2023-07-22T00:28:28;100612.03;;;25.77;100.00
45275;BME280;31019;43.780;25.948;2023-07-22T00:30:55;100675.97;;;25.66;100.00
45275;BME280;31019;43.780;25.948;2023-07-22T00:33:23;100859.34;;;27.45;100.00
45275;BME280;31019;43.780;25.948;2023-07-22T00:35:50;100856.66;;;27.71;100.00
45275;BME280;31019;43.780;25.948;2023-07-22T00:38:33;100759.72;;;27.56;100.00
45275;BME280;31019;43.780;25.948;2023-07-22T00:40:59;100881.69;;;27.64;100.00
45275;BME280;31019;43.780;25.948;2023-07-22T00:43:44;100876.94;;;27.79;100.00
45275;BME280;31019;43.780;25.948;2023-07-22T00:46:11;100855.88;;;26.91;100.00
45275;BME280;31019;43.780;25.948;2023-07-22T00:48:38;100858.50;;;27.84;100.00
45275;BME280;31019;43.780;25.948;2023-07-22T00:51:05;100856.63;;;27.45;100.00
45275;BME280;31019;43.780;25.948;2023-07-22T00:53:33;100839.03;;;26.89;100.00
45275;BME280;31019;43.780;25.948;2023-07-22T00:56:07;100844.03;;;26.95;100.00
45275;BME280;31019;43.780;25.948;2023-07-22T00:58:34;100861.53;;;26.49;100.00
45275;BME280;31019;43.780;25.948;2023-07-22T01:01:01;100822.84;;;26.92;100.00
45275;BME280;31019;43.780;25.948;2023-07-22T01:03:28;100823.13;;;26.51;100.00
45275;BME280;31019;43.780;25.948;2023-07-22T01:05:54;100846.59;;;26.47;100.00
45275;BME280;31019;43.780;25.948;2023-07-22T01:08:37;100836.94;;;26.86;100.00
45275;BME280;31019;43.780;25.948;2023-07-22T01:11:06;100821.56;;;26.00;100.00
45275;BME280;31019;43.780;25.948;2023-07-22T01:13:32;100817.59;;;25.70;100.00
45275;BME280;31019;43.780;25.948;2023-07-22T01:16:12;100798.19;;;25.99;100.00
45275;BME280;31019;43.780;25.948;2023-07-22T01:18:39;100819.13;;;25.48;100.00
45275;BME280;31019;43.780;25.948;2023-07-22T01:21:06;100800.91;;;25.49;100.00
45275;BME280;31019;43.780;25.948;2023-07-22T01:23:35;100767.16;;;25.50;100.00
45275;BME280;31019;43.780;25.948;2023-07-22T01:26:08;100733.63;;;25.54;100.00
45275;BME280;31019;43.780;25.948;2023-07-22T01:28:38;100735.09;;;26.19;100.00
45275;BME280;31019;43.780;25.948;2023-07-22T01:31:05;100745.56;;;25.67;100.00
45275;BME280;31019;43.780;25.948;2023-07-22T01:33:32;100768.00;;;25.36;100.00
45275;BME280;31019;43.780;25.948;2023-07-22T01:36:00;100775.31;;;25.08;100.00
45275;BME280;31019;43.780;25.948;2023-07-22T01:38:27;100793.75;;;25.11;100.00
45275;BME280;31019;43.780;25.948;2023-07-22T01:40:56;100800.69;;;25.45;100.00
45275;BME280;31019;43.780;25.948;2023-07-22T01:43:23;100805.59;;;24.88;100.00
45275;BME280;31019;43.780;25.948;2023-07-22T01:46:00;100801.31;;;25.15;100.00
45275;BME280;31019;43.780;25.948;2023-07-22T01:48:34;100802.75;;;24.93;100.00
45275;BME280;31019;43.780;25.948;2023-07-22T01:51:01;100800.78;;;25.12;100.00
45275;BME280;31019;43.780;25.948;2023-07-22T01:53:29;100796.56;;;25.20;100.00
45275;BME280;31019;43.780;25.948;2023-07-22T01:55:59;100790.34;;;25.20;100.00
45275;BME280;31019;43.780;25.948;2023-07-22T01:58:28;100766.47;;;25.17;100.00
45275;BME280;31019;43.780;25.948;2023-07-22T02:00:54;100761.84;;;25.17;100.00
45275;BME280;31019;43.780;25.948;2023-07-22T02:03:21;100767.25;;;24.89;100.00
45275;BME280;31019;43.780;25.948;2023-07-22T02:05:48;100772.41;;;24.91;100.00
45275;BME280;31019;43.780;25.948;2023-07-22T02:08:15;100767.84;;;24.86;100.00
45275;BME280;31019;43.780;25.948;2023-07-22T02:10:45;100765.50;;;24.33;100.00
45275;BME280;31019;43.780;25.948;2023-07-22T02:13:13;100769.34;;;24.65;100.00
45275;BME280;31019;43.780;25.948;2023-07-22T02:15:41;100774.31;;;24.44;100.00
45275;BME280;31019;43.780;25.948;2023-07-22T02:18:08;100783.41;;;24.34;100.00
45275;BME280;31019;43.780;25.948;2023-07-22T02:20:35;100791.97;;;24.09;100.00
45275;BME280;31019;43.780;25.948;2023-07-22T02:23:02;100799.00;;;23.91;100.00
45275;BME280;31019;43.780;25.948;2023-07-22T02:25:28;100780.97;;;24.00;100.00
45275;BME280;31019;43.780;25.948;2023-07-22T02:28:02;100777.50;;;24.13;100.00
45275;BME280;31019;43.780;25.948;2023-07-22T02:30:33;100772.28;;;23.60;100.00
45275;BME280;31019;43.780;25.948;2023-07-22T02:33:01;100789.75;;;23.92;100.00
45275;BME280;31019;43.780;25.948;2023-07-22T02:35:28;100781.75;;;24.00;100.00
45275;BME280;31019;43.780;25.948;2023-07-22T02:37:55;100775.31;;;23.77;100.00
45275;BME280;31019;43.780;25.948;2023-07-22T02:40:22;100775.75;;;24.04;100.00
45275;BME280;31019;43.780;25.948;2023-07-22T02:42:49;100782.41;;;24.11;100.00
45275;BME280;31019;43.780;25.948;2023-07-22T02:45:31;100782.13;;;23.94;100.00
45275;BME280;31019;43.780;25.948;2023-07-22T02:48:04;100785.59;;;23.99;100.00
45275;BME280;31019;43.780;25.948;2023-07-22T02:50:32;100777.94;;;24.02;100.00
45275;BME280;31019;43.780;25.948;2023-07-22T02:52:59;100775.06;;;23.93;100.00
45275;BME280;31019;43.780;25.948;2023-07-22T02:55:26;100771.19;;;23.99;100.00
45275;BME280;31019;43.780;25.948;2023-07-22T02:58:02;100774.84;;;24.08;100.00
45275;BME280;31019;43.780;25.948;2023-07-22T03:00:32;100780.38;;;24.03;100.00
45275;BME280;31019;43.780;25.948;2023-07-22T03:02:59;100770.59;;;24.02;100.00
45275;BME280;31019;43.780;25.948;2023-07-22T03:05:27;100765.47;;;24.00;100.00
45275;BME280;31019;43.780;25.948;2023-07-22T03:07:54;100770.25;;;23.90;100.00
45275;BME280;31019;43.780;25.948;2023-07-22T03:10:21;100761.44;;;23.98;100.00
45275;BME280;31019;43.780;25.948;2023-07-22T03:12:48;100764.00;;;23.89;100.00
45275;BME280;31019;43.780;25.948;2023-07-22T03:15:15;100765.13;;;23.88;100.00
45275;BME280;31019;43.780;25.948;2023-07-22T03:17:46;100774.44;;;23.82;100.00
45275;BME280;31019;43.780;25.948;2023-07-22T03:20:14;100777.72;;;23.79;100.00
45275;BME280;31019;43.780;25.948;2023-07-22T03:22:44;100775.44;;;23.24;100.00
45275;BME280;31019;43.780;25.948;2023-07-22T03:25:12;100779.31;;;23.61;100.00
45275;BME280;31019;43.780;25.948;2023-07-22T03:27:40;100788.47;;;23.65;100.00
45275;BME280;31019;43.780;25.948;2023-07-22T03:30:07;100788.00;;;23.82;100.00
45275;BME280;31019;43.780;25.948;2023-07-22T03:32:36;100783.22;;;23.93;100.00
45275;BME280;31019;43.780;25.948;2023-07-22T03:35:06;100797.44;;;24.04;100.00
45275;BME280;31019;43.780;25.948;2023-07-22T03:37:38;100793.94;;;24.03;100.00
45275;BME280;31019;43.780;25.948;2023-07-22T03:40:06;100790.47;;;24.16;100.00
45275;BME280;31019;43.780;25.948;2023-07-22T03:42:41;100784.44;;;24.19;100.00
45275;BME280;31019;43.780;25.948;2023-07-22T03:45:28;100777.91;;;24.20;100.00
45275;BME280;31019;43.780;25.948;2023-07-22T03:47:57;100774.41;;;24.20;100.00
45275;BME280;31019;43.780;25.948;2023-07-22T03:50:25;100771.59;;;24.25;100.00
45275;BME280;31019;43.780;25.948;2023-07-22T03:52:59;100791.84;;;24.33;100.00
45275;BME280;31019;43.780;25.948;2023-07-22T03:55:26;100792.56;;;24.38;100.00
45275;BME280;31019;43.780;25.948;2023-07-22T03:57:53;100798.81;;;24.39;100.00
45275;BME280;31019;43.780;25.948;2023-07-22T04:00:20;100793.03;;;24.45;100.00
45275;BME280;31019;43.780;25.948;2023-07-22T04:03:01;100782.78;;;24.56;100.00
45275;BME280;31019;43.780;25.948;2023-07-22T04:05:29;100778.94;;;24.43;100.00
45275;BME280;31019;43.780;25.948;2023-07-22T04:07:56;100776.56;;;24.56;100.00
45275;BME280;31019;43.780;25.948;2023-07-22T04:10:23;100776.34;;;24.52;100.00
45275;BME280;31019;43.780;25.948;2023-07-22T04:12:55;100775.56;;;24.65;100.00
45275;BME280;31019;43.780;25.948;2023-07-22T04:15:22;100775.56;;;24.65;100.00
45275;BME280;31019;43.780;25.948;2023-07-22T04:17:49;100783.38;;;24.53;100.00
45275;BME280;31019;43.780;25.948;2023-07-22T04:20:37;100769.53;;;24.68;100.00
45275;BME280;31019;43.780;25.948;2023-07-22T04:23:21;100765.84;;;24.78;100.00
45275;BME280;31019;43.780;25.948;2023-07-22T04:25:48;100767.75;;;24.91;100.00
45275;BME280;31019;43.780;25.948;2023-07-22T04:28:20;100759.69;;;24.86;100.00
45275;BME280;31019;43.780;25.948;2023-07-22T04:31:13;100752.88;;;24.75;100.00
45275;BME280;31019;43.780;25.948;2023-07-22T04:33:45;100747.84;;;24.82;100.00
45275;BME280;31019;43.780;25.948;2023-07-22T04:36:14;100749.25;;;24.94;100.00
45275;BME280;31019;43.780;25.948;2023-07-22T04:38:41;100763.75;;;25.03;100.00
45275;BME280;31019;43.780;25.948;2023-07-22T04:41:29;100760.19;;;25.02;100.00
45275;BME280;31019;43.780;25.948;2023-07-22T04:44:02;100757.69;;;24.92;100.00
45275;BME280;31019;43.780;25.948;2023-07-22T04:46:29;100762.22;;;25.10;100.00
45275;BME280;31019;43.780;25.948;2023-07-22T04:48:58;100768.31;;;25.21;100.00
45275;BME280;31019;43.780;25.948;2023-07-22T04:51:26;100766.78;;;25.29;100.00
45275;BME280;31019;43.780;25.948;2023-07-22T04:53:53;100776.84;;;25.42;100.00
45275;BME280;31019;43.780;25.948;2023-07-22T04:56:20;100768.47;;;25.52;100.00
45275;BME280;31019;43.780;25.948;2023-07-22T04:58:48;100768.53;;;25.61;100.00
45275;BME280;31019;43.780;25.948;2023-07-22T05:01:15;100776.47;;;25.71;100.00
45275;BME280;31019;43.780;25.948;2023-07-22T05:03:42;100770.53;;;25.83;100.00
45275;BME280;31019;43.780;25.948;2023-07-22T05:06:09;100780.06;;;25.94;100.00
45275;BME280;31019;43.780;25.948;2023-07-22T05:08:37;100776.88;;;26.15;100.00
45275;BME280;31019;43.780;25.948;2023-07-22T05:11:04;100790.13;;;26.30;100.00
45275;BME280;31019;43.780;25.948;2023-07-22T05:13:31;100781.16;;;26.52;100.00
45275;BME280;31019;43.780;25.948;2023-07-22T05:15:58;100793.00;;;26.56;100.00
45275;BME280;31019;43.780;25.948;2023-07-22T05:18:34;100793.84;;;26.57;100.00
45275;BME280;31019;43.780;25.948;2023-07-22T05:21:03;100791.38;;;26.78;100.00
45275;BME280;31019;43.780;25.948;2023-07-22T05:23:30;100798.78;;;26.86;100.00
45275;BME280;31019;43.780;25.948;2023-07-22T05:25:58;100788.47;;;27.05;100.00
45275;BME280;31019;43.780;25.948;2023-07-22T05:28:30;100794.44;;;27.16;100.00
45275;BME280;31019;43.780;25.948;2023-07-22T05:31:11;100799.34;;;27.45;100.00
45275;BME280;31019;43.780;25.948;2023-07-22T05:33:41;100801.28;;;27.53;100.00
45275;BME280;31019;43.780;25.948;2023-07-22T05:36:10;100802.59;;;27.73;100.00
45275;BME280;31019;43.780;25.948;2023-07-22T05:38:37;100800.38;;;28.10;100.00
45275;BME280;31019;43.780;25.948;2023-07-22T05:41:05;100806.56;;;27.50;100.00
45275;BME280;31019;43.780;25.948;2023-07-22T05:43:32;100795.53;;;27.63;100.00
45275;BME280;31019;43.780;25.948;2023-07-22T05:45:59;100793.75;;;27.68;100.00
45275;BME280;31019;43.780;25.948;2023-07-22T05:48:26;100797.63;;;27.75;100.00
45275;BME280;31019;43.780;25.948;2023-07-22T05:50:59;100808.22;;;27.77;100.00
45275;BME280;31019;43.780;25.948;2023-07-22T05:53:26;100800.06;;;28.20;100.00
45275;BME280;31019;43.780;25.948;2023-07-22T05:55:53;100806.78;;;28.31;100.00
45275;BME280;31019;43.780;25.948;2023-07-22T05:58:21;100815.31;;;28.21;100.00
45275;BME280;31019;43.780;25.948;2023-07-22T06:00:48;100818.94;;;28.77;100.00
45275;BME280;31019;43.780;25.948;2023-07-22T06:03:17;100816.88;;;29.21;100.00
45275;BME280;31019;43.780;25.948;2023-07-22T06:05:44;100830.63;;;27.56;100.00
45275;BME280;31019;43.780;25.948;2023-07-22T06:08:10;100838.59;;;27.93;100.00
45275;BME280;31019;43.780;25.948;2023-07-22T06:10:40;100828.00;;;28.00;100.00
45275;BME280;31019;43.780;25.948;2023-07-22T06:13:07;100832.50;;;28.39;100.00
45275;BME280;31019;43.780;25.948;2023-07-22T06:15:35;100840.53;;;28.18;100.00
45275;BME280;31019;43.780;25.948;2023-07-22T06:18:02;100839.59;;;28.14;100.00
45275;BME280;31019;43.780;25.948;2023-07-22T06:20:33;100835.22;;;28.04;100.00
45275;BME280;31019;43.780;25.948;2023-07-22T06:23:00;100839.56;;;28.31;100.00
45275;BME280;31019;43.780;25.948;2023-07-22T06:25:27;100848.78;;;27.52;100.00
45275;BME280;31019;43.780;25.948;2023-07-22T06:27:53;100842.72;;;27.73;100.00
45275;BME280;31019;43.780;25.948;2023-07-22T06:30:25;100840.91;;;27.59;100.00
45275;BME280;31019;43.780;25.948;2023-07-22T06:32:54;100844.56;;;28.21;100.00
45275;BME280;31019;43.780;25.948;2023-07-22T06:35:21;100835.53;;;28.72;100.00
45275;BME280;31019;43.780;25.948;2023-07-22T06:37:48;100835.41;;;28.08;100.00
45275;BME280;31019;43.780;25.948;2023-07-22T06:40:15;100825.44;;;28.12;100.00
45275;BME280;31019;43.780;25.948;2023-07-22T06:42:44;100812.59;;;27.86;100.00
45275;BME280;31019;43.780;25.948;2023-07-22T06:45:13;100804.91;;;28.06;100.00
45275;BME280;31019;43.780;25.948;2023-07-22T06:47:41;100805.53;;;28.20;100.00
45275;BME280;31019;43.780;25.948;2023-07-22T06:50:10;100818.13;;;28.77;100.00
45275;BME280;31019;43.780;25.948;2023-07-22T06:52:36;100824.63;;;28.46;100.00
45275;BME280;31019;43.780;25.948;2023-07-22T06:55:04;100838.88;;;28.78;100.00
45275;BME280;31019;43.780;25.948;2023-07-22T06:57:32;100853.03;;;28.71;100.00
45275;BME280;31019;43.780;25.948;2023-07-22T07:00:02;100856.72;;;28.75;100.00
45275;BME280;31019;43.780;25.948;2023-07-22T07:02:29;100857.66;;;28.88;100.00
45275;BME280;31019;43.780;25.948;2023-07-22T07:04:55;100862.84;;;28.72;100.00
45275;BME280;31019;43.780;25.948;2023-07-22T07:07:40;100854.28;;;29.38;100.00
45275;BME280;31019;43.780;25.948;2023-07-22T07:10:07;100861.56;;;29.26;100.00
45275;BME280;31019;43.780;25.948;2023-07-22T07:12:35;100875.84;;;29.31;100.00
45275;BME280;31019;43.780;25.948;2023-07-22T07:15:02;100860.34;;;29.44;100.00
45275;BME280;31019;43.780;25.948;2023-07-22T07:17:29;100860.97;;;29.20;100.00
45275;BME280;31019;43.780;25.948;2023-07-22T07:19:56;100851.47;;;29.17;100.00
45275;BME280;31019;43.780;25.948;2023-07-22T07:22:23;100859.03;;;29.80;100.00
45275;BME280;31019;43.780;25.948;2023-07-22T07:24:54;100870.34;;;28.93;100.00
45275;BME280;31019;43.780;25.948;2023-07-22T07:27:21;100873.56;;;29.42;100.00
45275;BME280;31019;43.780;25.948;2023-07-22T07:29:47;100869.59;;;29.60;100.00
45275;BME280;31019;43.780;25.948;2023-07-22T07:32:14;100875.91;;;29.52;100.00
45275;BME280;31019;43.780;25.948;2023-07-22T07:34:41;100877.78;;;29.69;100.00
45275;BME280;31019;43.780;25.948;2023-07-22T07:37:08;100865.84;;;29.74;100.00
45275;BME280;31019;43.780;25.948;2023-07-22T07:39:35;100858.66;;;29.90;100.00
45275;BME280;31019;43.780;25.948;2023-07-22T07:42:05;100852.28;;;29.77;100.00
45275;BME280;31019;43.780;25.948;2023-07-22T07:44:32;100849.38;;;30.24;100.00
45275;BME280;31019;43.780;25.948;2023-07-22T07:46:58;100841.94;;;29.53;100.00
45275;BME280;31019;43.780;25.948;2023-07-22T07:49:25;100844.66;;;29.62;100.00
45275;BME280;31019;43.780;25.948;2023-07-22T07:51:52;100853.38;;;29.55;100.00
45275;BME280;31019;43.780;25.948;2023-07-22T07:54:25;100848.16;;;30.13;100.00
45275;BME280;31019;43.780;25.948;2023-07-22T07:56:52;100844.88;;;30.20;100.00
45275;BME280;31019;43.780;25.948;2023-07-22T07:59:20;100833.28;;;30.56;100.00
45275;BME280;31019;43.780;25.948;2023-07-22T08:01:47;100832.41;;;30.31;100.00
45275;BME280;31019;43.780;25.948;2023-07-22T08:04:14;100836.97;;;30.27;100.00
45275;BME280;31019;43.780;25.948;2023-07-22T08:06:42;100826.69;;;30.24;100.00
45275;BME280;31019;43.780;25.948;2023-07-22T08:09:10;100826.47;;;30.29;100.00
45275;BME280;31019;43.780;25.948;2023-07-22T08:11:44;100820.00;;;30.79;100.00
45275;BME280;31019;43.780;25.948;2023-07-22T08:14:11;100820.41;;;31.02;100.00
45275;BME280;31019;43.780;25.948;2023-07-22T08:16:40;100823.25;;;30.60;100.00
45275;BME280;31019;43.780;25.948;2023-07-22T08:19:08;100822.28;;;30.44;100.00
45275;BME280;31019;43.780;25.948;2023-07-22T08:21:34;100807.53;;;30.69;100.00
45275;BME280;31019;43.780;25.948;2023-07-22T08:24:01;100809.53;;;30.48;100.00
45275;BME280;31019;43.780;25.948;2023-07-22T08:26:28;100800.16;;;30.82;100.00
45275;BME280;31019;43.780;25.948;2023-07-22T08:28:55;100801.31;;;30.93;100.00
45275;BME280;31019;43.780;25.948;2023-07-22T08:31:22;100793.47;;;30.71;100.00
45275;BME280;31019;43.780;25.948;2023-07-22T08:33:50;100795.94;;;31.09;100.00
45275;BME280;31019;43.780;25.948;2023-07-22T08:36:17;100809.53;;;31.18;100.00
45275;BME280;31019;43.780;25.948;2023-07-22T08:38:52;100810.13;;;31.11;100.00
45275;BME280;31019;43.780;25.948;2023-07-22T08:41:19;100819.00;;;30.84;100.00
45275;BME280;31019;43.780;25.948;2023-07-22T08:43:49;100814.81;;;31.35;100.00
45275;BME280;31019;43.780;25.948;2023-07-22T08:46:19;100808.78;;;31.82;100.00
45275;BME280;31019;43.780;25.948;2023-07-22T08:48:47;100802.31;;;31.25;100.00
45275;BME280;31019;43.780;25.948;2023-07-22T08:51:17;100802.69;;;31.89;100.00
45275;BME280;31019;43.780;25.948;2023-07-22T08:53:45;100793.94;;;31.59;100.00
45275;BME280;31019;43.780;25.948;2023-07-22T08:56:12;100800.66;;;31.74;100.00
45275;BME280;31019;43.780;25.948;2023-07-22T08:58:41;100799.69;;;32.06;100.00
45275;BME280;31019;43.780;25.948;2023-07-22T09:01:09;100793.50;;;31.69;100.00
45275;BME280;31019;43.780;25.948;2023-07-22T09:03:39;100789.16;;;32.52;100.00
45275;BME280;31019;43.780;25.948;2023-07-22T09:06:07;100790.91;;;32.29;100.00
45275;BME280;31019;43.780;25.948;2023-07-22T09:08:36;100794.59;;;32.21;100.00
45275;BME280;31019;43.780;25.948;2023-07-22T09:11:04;100795.38;;;31.40;100.00
45275;BME280;31019;43.780;25.948;2023-07-22T09:13:31;100795.38;;;32.21;100.00
45275;BME280;31019;43.780;25.948;2023-07-22T09:15:59;100812.53;;;32.02;100.00
45275;BME280;31019;43.780;25.948;2023-07-22T09:18:26;100802.19;;;32.55;100.00
45275;BME280;31019;43.780;25.948;2023-07-22T09:20:53;100811.78;;;31.89;100.00
45275;BME280;31019;43.780;25.948;2023-07-22T09:23:31;100812.56;;;31.90;100.00
45275;BME280;31019;43.780;25.948;2023-07-22T09:26:09;100801.81;;;32.13;100.00
45275;BME280;31019;43.780;25.948;2023-07-22T09:28:53;100797.84;;;32.98;100.00
45275;BME280;31019;43.780;25.948;2023-07-22T09:31:21;100798.63;;;33.50;100.00
45275;BME280;31019;43.780;25.948;2023-07-22T09:33:48;100793.44;;;32.97;100.00
45275;BME280;31019;43.780;25.948;2023-07-22T09:36:16;100785.75;;;32.27;100.00
45275;BME280;31019;43.780;25.948;2023-07-22T09:38:43;100783.34;;;32.54;100.00
45275;BME280;31019;43.780;25.948;2023-07-22T09:41:11;100794.31;;;32.70;100.00
45275;BME280;31019;43.780;25.948;2023-07-22T09:43:39;100794.31;;;32.54;100.00
45275;BME280;31019;43.780;25.948;2023-07-22T09:46:07;100798.41;;;32.60;100.00
45275;BME280;31019;43.780;25.948;2023-07-22T09:48:42;100785.75;;;32.43;100.00
45275;BME280;31019;43.780;25.948;2023-07-22T09:51:13;100776.91;;;32.50;100.00
45275;BME280;31019;43.780;25.948;2023-07-22T09:53:47;100790.63;;;32.62;100.00
45275;BME280;31019;43.780;25.948;2023-07-22T09:56:16;100789.53;;;33.49;99.65
45275;BME280;31019;43.780;25.948;2023-07-22T09:58:45;100791.16;;;32.83;100.00
45275;BME280;31019;43.780;25.948;2023-07-22T10:01:17;100789.72;;;32.74;100.00
45275;BME280;31019;43.780;25.948;2023-07-22T10:03:45;100784.13;;;32.70;100.00
45275;BME280;31019;43.780;25.948;2023-07-22T10:06:14;100773.41;;;32.65;100.00
45275;BME280;31019;43.780;25.948;2023-07-22T10:08:43;100779.84;;;32.89;100.00
45275;BME280;31019;43.780;25.948;2023-07-22T10:11:15;100779.63;;;32.62;100.00
45275;BME280;31019;43.780;25.948;2023-07-22T10:13:42;100782.63;;;32.89;100.00
45275;BME280;31019;43.780;25.948;2023-07-22T10:16:09;100771.38;;;32.62;100.00
45275;BME280;31019;43.780;25.948;2023-07-22T10:18:38;100775.91;;;33.37;100.00
45275;BME280;31019;43.780;25.948;2023-07-22T10:21:07;100768.19;;;33.08;100.00
45275;BME280;31019;43.780;25.948;2023-07-22T10:23:35;100769.16;;;32.24;100.00
45275;BME280;31019;43.780;25.948;2023-07-22T10:26:04;100765.50;;;32.79;100.00
45275;BME280;31019;43.780;25.948;2023-07-22T10:28:33;100772.50;;;32.77;100.00
45275;BME280;31019;43.780;25.948;2023-07-22T10:31:00;100757.16;;;33.43;100.00
45275;BME280;31019;43.780;25.948;2023-07-22T10:33:28;100765.38;;;33.59;100.00
45275;BME280;31019;43.780;25.948;2023-07-22T10:36:04;100771.97;;;33.19;100.00
45275;BME280;31019;43.780;25.948;2023-07-22T10:38:31;100759.84;;;33.39;100.00
45275;BME280;31019;43.780;25.948;2023-07-22T10:40:58;100774.09;;;33.61;100.00
45275;BME280;31019;43.780;25.948;2023-07-22T10:43:26;100770.56;;;33.09;100.00
45275;BME280;31019;43.780;25.948;2023-07-22T10:45:56;100765.59;;;33.50;100.00
45275;BME280;31019;43.780;25.948;2023-07-22T10:48:26;100760.91;;;33.70;100.00
45275;BME280;31019;43.780;25.948;2023-07-22T10:50:58;100765.44;;;33.08;100.00
45275;BME280;31019;43.780;25.948;2023-07-22T10:53:30;100762.44;;;33.32;100.00
45275;BME280;31019;43.780;25.948;2023-07-22T10:56:05;100759.38;;;33.92;100.00
45275;BME280;31019;43.780;25.948;2023-07-22T10:58:33;100758.59;;;33.72;97.58
45275;BME280;31019;43.780;25.948;2023-07-22T11:01:23;100767.84;;;34.22;100.00
45275;BME280;31019;43.780;25.948;2023-07-22T11:04:10;100754.53;;;33.85;100.00
45275;BME280;31019;43.780;25.948;2023-07-22T11:06:39;100763.00;;;33.77;100.00
45275;BME280;31019;43.780;25.948;2023-07-22T11:09:39;100756.94;;;33.32;100.00
45275;BME280;31019;43.780;25.948;2023-07-22T11:12:09;100753.88;;;33.37;100.00
45275;BME280;31019;43.780;25.948;2023-07-22T11:14:42;100753.97;;;33.95;100.00
45275;BME280;31019;43.780;25.948;2023-07-22T11:17:13;100750.78;;;33.74;100.00
45275;BME280;31019;43.780;25.948;2023-07-22T11:19:40;100741.31;;;34.56;91.55
45275;BME280;31019;43.780;25.948;2023-07-22T11:22:07;100747.09;;;34.05;89.45
45275;BME280;31019;43.780;25.948;2023-07-22T11:24:34;100762.66;;;33.78;92.91
45275;BME280;31019;43.780;25.948;2023-07-22T11:27:03;100768.09;;;34.13;97.78
45275;BME280;31019;43.780;25.948;2023-07-22T11:29:31;100762.88;;;33.69;100.00
45275;BME280;31019;43.780;25.948;2023-07-22T11:31:58;100757.06;;;34.56;89.78
45275;BME280;31019;43.780;25.948;2023-07-22T11:34:27;100770.75;;;33.51;100.00
45275;BME280;31019;43.780;25.948;2023-07-22T11:36:55;100762.88;;;33.69;100.00
45275;BME280;31019;43.780;25.948;2023-07-22T11:39:24;100758.31;;;34.39;89.10
45275;BME280;31019;43.780;25.948;2023-07-22T11:41:51;100753.38;;;34.06;94.26
45275;BME280;31019;43.780;25.948;2023-07-22T11:44:20;100744.19;;;34.63;84.30
45275;BME280;31019;43.780;25.948;2023-07-22T11:46:51;100739.09;;;34.19;90.47
45275;BME280;31019;43.780;25.948;2023-07-22T11:49:25;100740.41;;;34.52;93.01
45275;BME280;31019;43.780;25.948;2023-07-22T11:51:56;100751.63;;;33.78;93.79
45275;BME280;31019;43.780;25.948;2023-07-22T11:54:24;100756.47;;;33.11;100.00
45275;BME280;31019;43.780;25.948;2023-07-22T11:56:51;100755.34;;;34.05;87.58
45275;BME280;31019;43.780;25.948;2023-07-22T11:59:32;100744.75;;;33.88;94.74
45275;BME280;31019;43.780;25.948;2023-07-22T12:02:00;100734.66;;;32.54;100.00
45275;BME280;31019;43.780;25.948;2023-07-22T12:04:27;100737.47;;;33.41;100.00
45275;BME280;31019;43.780;25.948;2023-07-22T12:06:56;100730.81;;;32.91;100.00
45275;BME280;31019;43.780;25.948;2023-07-22T12:09:23;100737.53;;;33.44;100.00
45275;BME280;31019;43.780;25.948;2023-07-22T12:11:55;100727.09;;;34.77;82.02
45275;BME280;31019;43.780;25.948;2023-07-22T12:14:22;100725.31;;;34.65;75.83
45275;BME280;31019;43.780;25.948;2023-07-22T12:16:54;100730.81;;;34.42;89.53
45275;BME280;31019;43.780;25.948;2023-07-22T12:19:22;100737.06;;;34.16;93.89
45275;BME280;31019;43.780;25.948;2023-07-22T12:21:49;100736.75;;;33.44;100.00
45275;BME280;31019;43.780;25.948;2023-07-22T12:24:17;100726.41;;;33.76;96.41
45275;BME280;31019;43.780;25.948;2023-07-22T12:26:44;100723.38;;;33.81;95.78
45275;BME280;31019;43.780;25.948;2023-07-22T12:29:11;100730.84;;;33.81;88.33
45275;BME280;31019;43.780;25.948;2023-07-22T12:31:38;100729.38;;;34.52;73.96
45275;BME280;31019;43.780;25.948;2023-07-22T12:34:04;100722.44;;;34.58;75.69
45275;BME280;31019;43.780;25.948;2023-07-22T12:36:31;100730.38;;;34.17;80.38
45275;BME280;31019;43.780;25.948;2023-07-22T12:38:58;100726.91;;;34.43;77.88
45275;BME280;31019;43.780;25.948;2023-07-22T12:41:26;100718.00;;;34.77;66.71